ADR7B LJLJ-LQSA
Flight info
| Callsign | ADR7B |
|---|---|
| Flight time | 0h 38m |
| Altitude | 27000 |
| Route | LUPIX DCT BOSNA |
| Aircraft | A320/M-SDE3FGHIRWY/LB1 |
Departure
| Time | 2026-04-17 11:39 |
|---|---|
| Airport | Ljubljana Jože Pučnik Airport (LJLJ) |
Arrival
| Time | 2026-04-17 12:17 |
|---|---|
| Airport | Sarajevo International Airport (LQSA) |
| Time | Latitude | Longitude | Altitude | Speed | Heading |
|---|---|---|---|---|---|
| 2026-04-17 11:07 | 46.22956 | 14.45561 | 1258 ft | 0 kts | 36° |
| 2026-04-17 11:28 | 46.22936 | 14.45541 | 1260 ft | 4 kts | 27° |
| 2026-04-17 11:28 | 46.22911 | 14.45528 | 1266 ft | 4 kts | 3° |
| 2026-04-17 11:28 | 46.22890 | 14.45535 | 1261 ft | 3 kts | 309° |
| 2026-04-17 11:28 | 46.22888 | 14.45538 | 1261 ft | 0 kts | 306° |
| 2026-04-17 11:31 | 46.22889 | 14.45536 | 1261 ft | 1 kts | 306° |
| 2026-04-17 11:31 | 46.22896 | 14.45521 | 1265 ft | 1 kts | 304° |
| 2026-04-17 11:31 | 46.22905 | 14.45503 | 1268 ft | 3 kts | 304° |
| 2026-04-17 11:32 | 46.22920 | 14.45472 | 1258 ft | 4 kts | 305° |
| 2026-04-17 11:32 | 46.22937 | 14.45434 | 1268 ft | 4 kts | 298° |
| 2026-04-17 11:32 | 46.22925 | 14.45404 | 1264 ft | 4 kts | 217° |
| 2026-04-17 11:32 | 46.22899 | 14.45373 | 1259 ft | 6 kts | 219° |
| 2026-04-17 11:33 | 46.22865 | 14.45333 | 1259 ft | 7 kts | 219° |
| 2026-04-17 11:33 | 46.22855 | 14.45274 | 1264 ft | 7 kts | 294° |
| 2026-04-17 11:33 | 46.22883 | 14.45217 | 1261 ft | 7 kts | 306° |
| 2026-04-17 11:33 | 46.22912 | 14.45160 | 1266 ft | 7 kts | 307° |
| 2026-04-17 11:34 | 46.22959 | 14.45068 | 1264 ft | 16 kts | 306° |
| 2026-04-17 11:34 | 46.23025 | 14.44939 | 1271 ft | 16 kts | 307° |
| 2026-04-17 11:34 | 46.23091 | 14.44812 | 1269 ft | 16 kts | 306° |
| 2026-04-17 11:34 | 46.23155 | 14.44685 | 1272 ft | 15 kts | 306° |
| 2026-04-17 11:35 | 46.23218 | 14.44562 | 1275 ft | 15 kts | 306° |
| 2026-04-17 11:35 | 46.23279 | 14.44442 | 1277 ft | 15 kts | 306° |
| 2026-04-17 11:35 | 46.23340 | 14.44322 | 1281 ft | 15 kts | 307° |
| 2026-04-17 11:35 | 46.23394 | 14.44213 | 1282 ft | 11 kts | 299° |
| 2026-04-17 11:36 | 46.23380 | 14.44112 | 1283 ft | 12 kts | 220° |
| 2026-04-17 11:36 | 46.23298 | 14.44080 | 1284 ft | 14 kts | 169° |
| 2026-04-17 11:36 | 46.23203 | 14.44138 | 1281 ft | 17 kts | 140° |
| 2026-04-17 11:36 | 46.23100 | 14.44326 | 1277 ft | 31 kts | 127° |
| 2026-04-17 11:37 | 46.23079 | 14.44366 | 1276 ft | 0 kts | 126° |
| 2026-04-17 11:37 | 46.23075 | 14.44375 | 1276 ft | 6 kts | 126° |
| 2026-04-17 11:38 | 46.22952 | 14.44617 | 1271 ft | 64 kts | 126° |
| 2026-04-17 11:38 | 46.22563 | 14.45380 | 1258 ft | 122 kts | 127° |
| 2026-04-17 11:38 | 46.21959 | 14.46554 | 1241 ft | 167 kts | 127° |
| 2026-04-17 11:38 | 46.21273 | 14.47888 | 1842 ft | 161 kts | 127° |
| 2026-04-17 11:39 | 46.20611 | 14.49169 | 2543 ft | 156 kts | 124° |
| 2026-04-17 11:39 | 46.19963 | 14.50409 | 3108 ft | 156 kts | 124° |
| 2026-04-17 11:39 | 46.19305 | 14.51670 | 3578 ft | 158 kts | 125° |
| 2026-04-17 11:39 | 46.18645 | 14.52932 | 4098 ft | 160 kts | 124° |
| 2026-04-17 11:40 | 46.17966 | 14.54235 | 4588 ft | 166 kts | 125° |
| 2026-04-17 11:40 | 46.17240 | 14.55667 | 4816 ft | 188 kts | 123° |
| 2026-04-17 11:40 | 46.16423 | 14.57286 | 5045 ft | 211 kts | 123° |
| 2026-04-17 11:40 | 46.15515 | 14.59082 | 5354 ft | 233 kts | 124° |
| 2026-04-17 11:41 | 46.14518 | 14.61043 | 5740 ft | 257 kts | 124° |
| 2026-04-17 11:41 | 46.13428 | 14.63172 | 6386 ft | 268 kts | 124° |
| 2026-04-17 11:41 | 46.12304 | 14.65360 | 7126 ft | 273 kts | 123° |
| 2026-04-17 11:41 | 46.11160 | 14.67585 | 7889 ft | 278 kts | 124° |
| 2026-04-17 11:42 | 46.09998 | 14.69838 | 8653 ft | 281 kts | 124° |
| 2026-04-17 11:42 | 46.08819 | 14.72117 | 9376 ft | 286 kts | 124° |
| 2026-04-17 11:42 | 46.08022 | 14.73659 | 9866 ft | 291 kts | 124° |
| 2026-04-17 11:42 | 46.06791 | 14.76042 | 10344 ft | 307 kts | 124° |
| 2026-04-17 11:43 | 46.05452 | 14.78595 | 10560 ft | 331 kts | 125° |
| 2026-04-17 11:43 | 46.04003 | 14.81310 | 10902 ft | 347 kts | 126° |
| 2026-04-17 11:43 | 46.02524 | 14.84051 | 11459 ft | 354 kts | 126° |
| 2026-04-17 11:43 | 46.00996 | 14.86873 | 12067 ft | 360 kts | 126° |
| 2026-04-17 11:44 | 45.99440 | 14.89747 | 12680 ft | 365 kts | 126° |
| 2026-04-17 11:44 | 45.97868 | 14.92650 | 13330 ft | 370 kts | 126° |
| 2026-04-17 11:44 | 45.96291 | 14.95560 | 13937 ft | 374 kts | 126° |
| 2026-04-17 11:44 | 45.94658 | 14.98575 | 14517 ft | 379 kts | 126° |
| 2026-04-17 11:45 | 45.93058 | 15.01530 | 15088 ft | 382 kts | 126° |
| 2026-04-17 11:45 | 45.91414 | 15.04561 | 15653 ft | 386 kts | 126° |
| 2026-04-17 11:45 | 45.89754 | 15.07617 | 16215 ft | 389 kts | 126° |
| 2026-04-17 11:45 | 45.88082 | 15.10699 | 16785 ft | 392 kts | 126° |
| 2026-04-17 11:46 | 45.86401 | 15.13793 | 17366 ft | 396 kts | 126° |
| 2026-04-17 11:46 | 45.84699 | 15.16924 | 17942 ft | 399 kts | 126° |
| 2026-04-17 11:46 | 45.82981 | 15.20082 | 18519 ft | 403 kts | 127° |
| 2026-04-17 11:46 | 45.81243 | 15.23275 | 19053 ft | 406 kts | 127° |
| 2026-04-17 11:47 | 45.79493 | 15.26480 | 19594 ft | 409 kts | 127° |
| 2026-04-17 11:47 | 45.77728 | 15.29707 | 20150 ft | 412 kts | 127° |
| 2026-04-17 11:47 | 45.75968 | 15.32926 | 20699 ft | 416 kts | 127° |
| 2026-04-17 11:47 | 45.74178 | 15.36200 | 21222 ft | 419 kts | 127° |
| 2026-04-17 11:48 | 45.72373 | 15.39499 | 21726 ft | 422 kts | 127° |
| 2026-04-17 11:48 | 45.70546 | 15.42833 | 22195 ft | 425 kts | 127° |
| 2026-04-17 11:48 | 45.68715 | 15.46166 | 22673 ft | 429 kts | 127° |
| 2026-04-17 11:48 | 45.66863 | 15.49531 | 23142 ft | 432 kts | 127° |
| 2026-04-17 11:49 | 45.64997 | 15.52917 | 23601 ft | 434 kts | 127° |
| 2026-04-17 11:49 | 45.63134 | 15.56286 | 23992 ft | 437 kts | 127° |
| 2026-04-17 11:49 | 45.61243 | 15.59707 | 24369 ft | 440 kts | 127° |
| 2026-04-17 11:49 | 45.59338 | 15.63153 | 24727 ft | 443 kts | 127° |
| 2026-04-17 11:50 | 45.57421 | 15.66620 | 25089 ft | 446 kts | 127° |
| 2026-04-17 11:50 | 45.55491 | 15.70106 | 25442 ft | 448 kts | 127° |
| 2026-04-17 11:50 | 45.53547 | 15.73610 | 25782 ft | 451 kts | 127° |
| 2026-04-17 11:50 | 45.51607 | 15.77096 | 26132 ft | 454 kts | 127° |
| 2026-04-17 11:51 | 45.49625 | 15.80650 | 26456 ft | 457 kts | 127° |
| 2026-04-17 11:51 | 45.47636 | 15.84213 | 26785 ft | 460 kts | 127° |
| 2026-04-17 11:51 | 45.45634 | 15.87795 | 27095 ft | 463 kts | 127° |
| 2026-04-17 11:51 | 45.43649 | 15.91353 | 27169 ft | 462 kts | 127° |
| 2026-04-17 11:52 | 45.41645 | 15.94938 | 27184 ft | 462 kts | 127° |
| 2026-04-17 11:52 | 45.39640 | 15.98516 | 27182 ft | 462 kts | 127° |
| 2026-04-17 11:52 | 45.37635 | 16.02092 | 27181 ft | 462 kts | 127° |
| 2026-04-17 11:52 | 45.35622 | 16.05677 | 27181 ft | 462 kts | 127° |
| 2026-04-17 11:53 | 45.33642 | 16.09202 | 27177 ft | 462 kts | 127° |
| 2026-04-17 11:53 | 45.31633 | 16.12772 | 27180 ft | 462 kts | 127° |
| 2026-04-17 11:53 | 45.29624 | 16.16341 | 27179 ft | 462 kts | 127° |
| 2026-04-17 11:53 | 45.27614 | 16.19908 | 27179 ft | 462 kts | 127° |
| 2026-04-17 11:54 | 45.25622 | 16.23434 | 27178 ft | 462 kts | 127° |
| 2026-04-17 11:54 | 45.23604 | 16.27005 | 27174 ft | 462 kts | 127° |
| 2026-04-17 11:54 | 45.21598 | 16.30548 | 27172 ft | 461 kts | 127° |
| 2026-04-17 11:54 | 45.19584 | 16.34097 | 27169 ft | 461 kts | 127° |
| 2026-04-17 11:55 | 45.17572 | 16.37645 | 27172 ft | 461 kts | 127° |
| 2026-04-17 11:55 | 45.15553 | 16.41204 | 27172 ft | 461 kts | 127° |
| 2026-04-17 11:55 | 45.13565 | 16.44699 | 27170 ft | 461 kts | 127° |
| 2026-04-17 11:55 | 45.11549 | 16.48238 | 27169 ft | 461 kts | 127° |
| 2026-04-17 11:56 | 45.09531 | 16.51772 | 27166 ft | 461 kts | 127° |
| 2026-04-17 11:56 | 45.07512 | 16.55303 | 27167 ft | 461 kts | 127° |
| 2026-04-17 11:56 | 45.05493 | 16.58832 | 27166 ft | 461 kts | 127° |
| 2026-04-17 11:56 | 45.03467 | 16.62370 | 27166 ft | 461 kts | 127° |
| 2026-04-17 11:57 | 45.01449 | 16.65897 | 27166 ft | 461 kts | 127° |
| 2026-04-17 11:57 | 44.99456 | 16.69374 | 27177 ft | 461 kts | 127° |
| 2026-04-17 11:57 | 44.97433 | 16.72891 | 27068 ft | 459 kts | 127° |
| 2026-04-17 11:57 | 44.95417 | 16.76387 | 26809 ft | 455 kts | 127° |
| 2026-04-17 11:58 | 44.93427 | 16.79835 | 26544 ft | 453 kts | 127° |
| 2026-04-17 11:58 | 44.91440 | 16.83276 | 26301 ft | 451 kts | 127° |
| 2026-04-17 11:58 | 44.89458 | 16.86709 | 26045 ft | 448 kts | 127° |
| 2026-04-17 11:58 | 44.87500 | 16.90101 | 25793 ft | 446 kts | 127° |
| 2026-04-17 11:59 | 44.85543 | 16.93485 | 25549 ft | 444 kts | 127° |
| 2026-04-17 11:59 | 44.83612 | 16.96817 | 25311 ft | 442 kts | 127° |
| 2026-04-17 11:59 | 44.81668 | 17.00168 | 25071 ft | 440 kts | 128° |
| 2026-04-17 11:59 | 44.79736 | 17.03493 | 24833 ft | 439 kts | 128° |
| 2026-04-17 12:00 | 44.77802 | 17.06811 | 24594 ft | 437 kts | 128° |
| 2026-04-17 12:00 | 44.75868 | 17.10124 | 24357 ft | 435 kts | 128° |
| 2026-04-17 12:00 | 44.73968 | 17.13380 | 24123 ft | 433 kts | 128° |
| 2026-04-17 12:00 | 44.72057 | 17.16655 | 23893 ft | 432 kts | 128° |
| 2026-04-17 12:01 | 44.70153 | 17.19916 | 23650 ft | 430 kts | 128° |
| 2026-04-17 12:01 | 44.68259 | 17.23161 | 23372 ft | 428 kts | 128° |
| 2026-04-17 12:01 | 44.66372 | 17.26389 | 23109 ft | 426 kts | 128° |
| 2026-04-17 12:01 | 44.64513 | 17.29559 | 22845 ft | 425 kts | 128° |
| 2026-04-17 12:02 | 44.62628 | 17.32765 | 22571 ft | 423 kts | 128° |
| 2026-04-17 12:02 | 44.60755 | 17.35944 | 22303 ft | 421 kts | 128° |
| 2026-04-17 12:02 | 44.58891 | 17.39109 | 22036 ft | 419 kts | 128° |
| 2026-04-17 12:02 | 44.57039 | 17.42262 | 21774 ft | 416 kts | 128° |
| 2026-04-17 12:03 | 44.55214 | 17.45363 | 21525 ft | 407 kts | 128° |
| 2026-04-17 12:03 | 44.53453 | 17.48341 | 21402 ft | 396 kts | 128° |
| 2026-04-17 12:03 | 44.51717 | 17.51269 | 21265 ft | 384 kts | 128° |
| 2026-04-17 12:03 | 44.50028 | 17.54120 | 21145 ft | 373 kts | 128° |
| 2026-04-17 12:04 | 44.48386 | 17.56890 | 20894 ft | 366 kts | 128° |
| 2026-04-17 12:04 | 44.46761 | 17.59631 | 20527 ft | 363 kts | 128° |
| 2026-04-17 12:04 | 44.45154 | 17.62341 | 20169 ft | 360 kts | 128° |
| 2026-04-17 12:04 | 44.43564 | 17.65024 | 19793 ft | 358 kts | 128° |
| 2026-04-17 12:05 | 44.41998 | 17.67666 | 19439 ft | 356 kts | 128° |
| 2026-04-17 12:05 | 44.40419 | 17.70323 | 19074 ft | 354 kts | 128° |
| 2026-04-17 12:05 | 44.38848 | 17.72962 | 18686 ft | 350 kts | 128° |
| 2026-04-17 12:05 | 44.37297 | 17.75565 | 17983 ft | 347 kts | 127° |
| 2026-04-17 12:06 | 44.35747 | 17.78132 | 17271 ft | 343 kts | 129° |
| 2026-04-17 12:06 | 44.34192 | 17.80635 | 16633 ft | 338 kts | 129° |
| 2026-04-17 12:06 | 44.32642 | 17.83091 | 15966 ft | 335 kts | 130° |
| 2026-04-17 12:06 | 44.31123 | 17.85487 | 15354 ft | 331 kts | 129° |
| 2026-04-17 12:07 | 44.29602 | 17.87888 | 14691 ft | 329 kts | 129° |
| 2026-04-17 12:07 | 44.28095 | 17.90273 | 14076 ft | 325 kts | 129° |
| 2026-04-17 12:07 | 44.26606 | 17.92639 | 13462 ft | 320 kts | 129° |
| 2026-04-17 12:07 | 44.25141 | 17.94967 | 12799 ft | 317 kts | 130° |
| 2026-04-17 12:08 | 44.23696 | 17.97263 | 12176 ft | 313 kts | 130° |
| 2026-04-17 12:08 | 44.22289 | 17.99496 | 11662 ft | 306 kts | 130° |
| 2026-04-17 12:08 | 44.20891 | 18.01714 | 11143 ft | 301 kts | 130° |
| 2026-04-17 12:08 | 44.19552 | 18.03921 | 10750 ft | 298 kts | 128° |
| 2026-04-17 12:09 | 44.18244 | 18.06161 | 10384 ft | 299 kts | 127° |
| 2026-04-17 12:09 | 44.16948 | 18.08412 | 10006 ft | 298 kts | 128° |
| 2026-04-17 12:09 | 44.15479 | 18.10467 | 9577 ft | 300 kts | 148° |
| 2026-04-17 12:09 | 44.13549 | 18.11545 | 9251 ft | 299 kts | 167° |
| 2026-04-17 12:10 | 44.11527 | 18.11559 | 8938 ft | 297 kts | 197° |
| 2026-04-17 12:10 | 44.09669 | 18.10324 | 8517 ft | 298 kts | 215° |
| 2026-04-17 12:10 | 44.07950 | 18.08614 | 8016 ft | 305 kts | 212° |
| 2026-04-17 12:10 | 44.06073 | 18.07207 | 7643 ft | 305 kts | 204° |
| 2026-04-17 12:11 | 44.04105 | 18.06105 | 7287 ft | 304 kts | 199° |
| 2026-04-17 12:11 | 44.02115 | 18.05222 | 6938 ft | 304 kts | 195° |
| 2026-04-17 12:11 | 44.00073 | 18.04515 | 6648 ft | 300 kts | 191° |
| 2026-04-17 12:12 | 43.96011 | 18.04496 | 6038 ft | 283 kts | 162° |
| 2026-04-17 12:12 | 43.94239 | 18.05477 | 5748 ft | 267 kts | 148° |
| 2026-04-17 12:12 | 43.92758 | 18.06934 | 5392 ft | 255 kts | 131° |
| 2026-04-17 12:12 | 43.91630 | 18.08718 | 5129 ft | 238 kts | 119° |
| 2026-04-17 12:13 | 43.90840 | 18.10655 | 4894 ft | 224 kts | 114° |
| 2026-04-17 12:13 | 43.90152 | 18.12511 | 4669 ft | 215 kts | 115° |
| 2026-04-17 12:13 | 43.89480 | 18.14322 | 4585 ft | 200 kts | 115° |
| 2026-04-17 12:13 | 43.88861 | 18.15987 | 4309 ft | 196 kts | 114° |
| 2026-04-17 12:14 | 43.88254 | 18.17618 | 4040 ft | 185 kts | 116° |
| 2026-04-17 12:14 | 43.87677 | 18.19170 | 3793 ft | 176 kts | 117° |
| 2026-04-17 12:14 | 43.87145 | 18.20595 | 3569 ft | 159 kts | 116° |
| 2026-04-17 12:14 | 43.86653 | 18.21913 | 3344 ft | 150 kts | 112° |
| 2026-04-17 12:15 | 43.86180 | 18.23184 | 3169 ft | 149 kts | 111° |
| 2026-04-17 12:15 | 43.85705 | 18.24458 | 2970 ft | 149 kts | 109° |
| 2026-04-17 12:15 | 43.85230 | 18.25729 | 2763 ft | 147 kts | 108° |
| 2026-04-17 12:15 | 43.84764 | 18.26977 | 2536 ft | 146 kts | 114° |
| 2026-04-17 12:16 | 43.84302 | 18.28210 | 2329 ft | 143 kts | 111° |
| 2026-04-17 12:16 | 43.83851 | 18.29429 | 2109 ft | 141 kts | 111° |
| 2026-04-17 12:16 | 43.83405 | 18.30619 | 1883 ft | 140 kts | 111° |
| 2026-04-17 12:16 | 43.82945 | 18.31834 | 1691 ft | 142 kts | 112° |
| 2026-04-17 12:17 | 43.82544 | 18.32932 | 1690 ft | 106 kts | 117° |
| 2026-04-17 12:17 | 43.82306 | 18.33552 | 1704 ft | 34 kts | 119° |
| 2026-04-17 12:17 | 43.82263 | 18.33679 | 1707 ft | 5 kts | 93° |
| 2026-04-17 12:17 | 43.82290 | 18.33690 | 1707 ft | 5 kts | 344° |
| 2026-04-17 12:18 | 43.82338 | 18.33672 | 1706 ft | 9 kts | 344° |
| 2026-04-17 12:18 | 43.82391 | 18.33651 | 1708 ft | 7 kts | 345° |
| 2026-04-17 12:18 | 43.82431 | 18.33638 | 1705 ft | 4 kts | 355° |
| 2026-04-17 12:18 | 43.82445 | 18.33650 | 1705 ft | 2 kts | 52° |
| 2026-04-17 12:19 | 43.82444 | 18.33670 | 1706 ft | 3 kts | 95° |
| 2026-04-17 12:19 | 43.82436 | 18.33694 | 1708 ft | 3 kts | 121° |
| 2026-04-17 12:19 | 43.82424 | 18.33723 | 1707 ft | 4 kts | 120° |
| 2026-04-17 12:19 | 43.82419 | 18.33740 | 1708 ft | 1 kts | 103° |
| 2026-04-17 12:20 | 43.82438 | 18.33763 | 1706 ft | 5 kts | 30° |
| 2026-04-17 12:20 | 43.82466 | 18.33786 | 1706 ft | 3 kts | 28° |
| 2026-04-17 12:20 | 43.82477 | 18.33794 | 1708 ft | 0 kts | 27° |